sensor_id;sensor_type;location;lat;lon;timestamp;pressure;altitude;pressure_sealevel;temperature;humidity
17311;BME280;8773;43.300;0.394;2022-11-20T00:01:17;99800.66;;;4.95;100.00
17311;BME280;8773;43.300;0.394;2022-11-20T00:03:50;99806.19;;;5.01;100.00
17311;BME280;8773;43.300;0.394;2022-11-20T00:06:20;99798.88;;;4.94;100.00
17311;BME280;8773;43.300;0.394;2022-11-20T00:08:48;99800.31;;;5.04;100.00
17311;BME280;8773;43.300;0.394;2022-11-20T00:11:23;99801.34;;;4.92;100.00
17311;BME280;8773;43.300;0.394;2022-11-20T00:13:53;99799.06;;;4.97;100.00
17311;BME280;8773;43.300;0.394;2022-11-20T00:16:23;99809.38;;;5.10;100.00
17311;BME280;8773;43.300;0.394;2022-11-20T00:18:55;99806.19;;;5.01;100.00
17311;BME280;8773;43.300;0.394;2022-11-20T00:21:25;99806.13;;;5.00;100.00
17311;BME280;8773;43.300;0.394;2022-11-20T00:23:56;99803.44;;;5.11;100.00
17311;BME280;8773;43.300;0.394;2022-11-20T00:26:25;99808.69;;;5.00;100.00
17311;BME280;8773;43.300;0.394;2022-11-20T00:28:55;99810.38;;;5.12;100.00
17311;BME280;8773;43.300;0.394;2022-11-20T00:31:27;99813.97;;;5.14;100.00
17311;BME280;8773;43.300;0.394;2022-11-20T00:34:01;99813.16;;;5.02;100.00
17311;BME280;8773;43.300;0.394;2022-11-20T00:36:33;99807.59;;;4.96;100.00
17311;BME280;8773;43.300;0.394;2022-11-20T00:39:04;99810.78;;;4.92;100.00
17311;BME280;8773;43.300;0.394;2022-11-20T00:41:32;99820.63;;;4.97;100.00
17311;BME280;8773;43.300;0.394;2022-11-20T00:44:00;99815.84;;;5.04;100.00
17311;BME280;8773;43.300;0.394;2022-11-20T00:46:28;99819.63;;;5.09;100.00
17311;BME280;8773;43.300;0.394;2022-11-20T00:49:01;99814.72;;;5.27;100.00
17311;BME280;8773;43.300;0.394;2022-11-20T00:51:29;99812.44;;;5.18;100.00
17311;BME280;8773;43.300;0.394;2022-11-20T00:54:06;99809.25;;;5.22;100.00
17311;BME280;8773;43.300;0.394;2022-11-20T00:56:34;99808.53;;;5.38;100.00
17311;BME280;8773;43.300;0.394;2022-11-20T00:59:05;99819.38;;;5.32;100.00
17311;BME280;8773;43.300;0.394;2022-11-20T01:01:36;99820.47;;;5.36;100.00
17311;BME280;8773;43.300;0.394;2022-11-20T01:04:08;99819.38;;;5.32;100.00
17311;BME280;8773;43.300;0.394;2022-11-20T01:06:39;99829.72;;;5.32;100.00
17311;BME280;8773;43.300;0.394;2022-11-20T01:09:12;99833.44;;;5.23;100.00
17311;BME280;8773;43.300;0.394;2022-11-20T01:11:42;99823.59;;;5.17;100.00
17311;BME280;8773;43.300;0.394;2022-11-20T01:14:15;99820.13;;;5.16;100.00
17311;BME280;8773;43.300;0.394;2022-11-20T01:16:46;99818.25;;;5.14;100.00
17311;BME280;8773;43.300;0.394;2022-11-20T01:19:18;99816.84;;;5.19;100.00
17311;BME280;8773;43.300;0.394;2022-11-20T01:21:49;99819.19;;;5.29;100.00
17311;BME280;8773;43.300;0.394;2022-11-20T01:24:19;99825.38;;;5.31;100.00
17311;BME280;8773;43.300;0.394;2022-11-20T01:26:48;99825.56;;;5.34;100.00
17311;BME280;8773;43.300;0.394;2022-11-20T01:29:19;99828.72;;;5.30;100.00
17311;BME280;8773;43.300;0.394;2022-11-20T01:31:48;99830.84;;;5.23;100.00
17311;BME280;8773;43.300;0.394;2022-11-20T01:34:20;99830.94;;;5.24;100.00
17311;BME280;8773;43.300;0.394;2022-11-20T01:36:49;99827.56;;;5.25;100.00
17311;BME280;8773;43.300;0.394;2022-11-20T01:39:18;99822.38;;;5.25;100.00
17311;BME280;8773;43.300;0.394;2022-11-20T01:41:48;99824.47;;;5.17;100.00
17311;BME280;8773;43.300;0.394;2022-11-20T01:44:49;99828.38;;;4.97;100.00
17311;BME280;8773;43.300;0.394;2022-11-20T01:47:24;99826.09;;;5.02;100.00
17311;BME280;8773;43.300;0.394;2022-11-20T01:49:57;99831.16;;;5.01;100.00
17311;BME280;8773;43.300;0.394;2022-11-20T01:52:30;99837.63;;;5.07;100.00
17311;BME280;8773;43.300;0.394;2022-11-20T01:55:03;99840.09;;;5.06;100.00
17311;BME280;8773;43.300;0.394;2022-11-20T01:57:34;99837.31;;;5.03;100.00
17311;BME280;8773;43.300;0.394;2022-11-20T02:00:06;99845.09;;;5.03;100.00
17311;BME280;8773;43.300;0.394;2022-11-20T02:02:37;99846.19;;;5.06;100.00
17311;BME280;8773;43.300;0.394;2022-11-20T02:05:16;99840.78;;;5.03;100.00
17311;BME280;8773;43.300;0.394;2022-11-20T02:07:46;99846.84;;;5.04;100.00
17311;BME280;8773;43.300;0.394;2022-11-20T02:10:15;99849.84;;;5.10;100.00
17311;BME280;8773;43.300;0.394;2022-11-20T02:12:44;99850.13;;;5.01;100.00
17311;BME280;8773;43.300;0.394;2022-11-20T02:15:29;99850.97;;;4.87;100.00
17311;BME280;8773;43.300;0.394;2022-11-20T02:18:00;99842.59;;;4.91;100.00
17311;BME280;8773;43.300;0.394;2022-11-20T02:20:29;99845.66;;;4.99;100.00
17311;BME280;8773;43.300;0.394;2022-11-20T02:23:01;99841.19;;;4.96;100.00
17311;BME280;8773;43.300;0.394;2022-11-20T02:25:33;99840.72;;;5.02;100.00
17311;BME280;8773;43.300;0.394;2022-11-20T02:28:04;99838.50;;;5.08;100.00
17311;BME280;8773;43.300;0.394;2022-11-20T02:30:32;99832.47;;;5.07;100.00
17311;BME280;8773;43.300;0.394;2022-11-20T02:33:00;99843.31;;;5.02;100.00
17311;BME280;8773;43.300;0.394;2022-11-20T02:35:41;99840.03;;;5.04;100.00
17311;BME280;8773;43.300;0.394;2022-11-20T02:38:10;99840.50;;;4.99;100.00
17311;BME280;8773;43.300;0.394;2022-11-20T02:40:39;99837.63;;;5.07;100.00
17311;BME280;8773;43.300;0.394;2022-11-20T02:43:08;99831.06;;;5.12;100.00
17311;BME280;8773;43.300;0.394;2022-11-20T02:45:36;99835.00;;;5.21;100.00
17311;BME280;8773;43.300;0.394;2022-11-20T02:48:06;99831.84;;;5.25;100.00
17311;BME280;8773;43.300;0.394;2022-11-20T02:50:37;99832.34;;;5.19;100.00
17311;BME280;8773;43.300;0.394;2022-11-20T02:53:05;99831.25;;;5.15;100.00
17311;BME280;8773;43.300;0.394;2022-11-20T02:55:34;99828.69;;;5.02;100.00
17311;BME280;8773;43.300;0.394;2022-11-20T02:58:04;99829.66;;;4.91;100.00
17311;BME280;8773;43.300;0.394;2022-11-20T03:00:32;99819.34;;;4.64;100.00
17311;BME280;8773;43.300;0.394;2022-11-20T03:03:00;99808.22;;;4.65;100.00
17311;BME280;8773;43.300;0.394;2022-11-20T03:05:30;99808.50;;;4.57;100.00
17311;BME280;8773;43.300;0.394;2022-11-20T03:07:58;99804.50;;;4.48;100.00
17311;BME280;8773;43.300;0.394;2022-11-20T03:10:26;99802.94;;;4.64;100.00
17311;BME280;8773;43.300;0.394;2022-11-20T03:12:57;99797.97;;;4.67;100.00
17311;BME280;8773;43.300;0.394;2022-11-20T03:15:27;99791.53;;;4.47;100.00
17311;BME280;8773;43.300;0.394;2022-11-20T03:17:55;99790.81;;;4.63;100.00
17311;BME280;8773;43.300;0.394;2022-11-20T03:20:23;99780.47;;;4.76;100.00
17311;BME280;8773;43.300;0.394;2022-11-20T03:22:53;99777.31;;;4.67;100.00
17311;BME280;8773;43.300;0.394;2022-11-20T03:25:22;99786.97;;;4.69;100.00
17311;BME280;8773;43.300;0.394;2022-11-20T03:27:50;99782.59;;;4.82;100.00
17311;BME280;8773;43.300;0.394;2022-11-20T03:30:19;99781.97;;;4.86;100.00
17311;BME280;8773;43.300;0.394;2022-11-20T03:32:52;99774.00;;;4.96;100.00
17311;BME280;8773;43.300;0.394;2022-11-20T03:35:21;99772.19;;;5.08;100.00
17311;BME280;8773;43.300;0.394;2022-11-20T03:37:49;99771.38;;;5.23;100.00
17311;BME280;8773;43.300;0.394;2022-11-20T03:40:19;99770.53;;;5.37;100.00
17311;BME280;8773;43.300;0.394;2022-11-20T03:42:47;99767.38;;;5.28;100.00
17311;BME280;8773;43.300;0.394;2022-11-20T03:45:18;99755.44;;;5.30;100.00
17311;BME280;8773;43.300;0.394;2022-11-20T03:47:47;99760.47;;;5.42;100.00
17311;BME280;8773;43.300;0.394;2022-11-20T03:50:16;99750.25;;;5.30;100.00
17311;BME280;8773;43.300;0.394;2022-11-20T03:52:44;99755.91;;;5.37;100.00
17311;BME280;8773;43.300;0.394;2022-11-20T03:55:12;99753.06;;;5.48;100.00
17311;BME280;8773;43.300;0.394;2022-11-20T03:57:40;99743.84;;;5.51;100.00
17311;BME280;8773;43.300;0.394;2022-11-20T04:00:09;99749.72;;;5.49;100.00
17311;BME280;8773;43.300;0.394;2022-11-20T04:02:38;99754.19;;;5.51;100.00
17311;BME280;8773;43.300;0.394;2022-11-20T04:05:06;99752.38;;;5.50;100.00
17311;BME280;8773;43.300;0.394;2022-11-20T04:07:36;99747.47;;;5.55;100.00
17311;BME280;8773;43.300;0.394;2022-11-20T04:10:05;99741.50;;;5.56;100.00
17311;BME280;8773;43.300;0.394;2022-11-20T04:12:33;99733.13;;;5.60;100.00
17311;BME280;8773;43.300;0.394;2022-11-20T04:15:01;99728.88;;;5.32;100.00
17311;BME280;8773;43.300;0.394;2022-11-20T04:17:29;99730.38;;;5.29;100.00
17311;BME280;8773;43.300;0.394;2022-11-20T04:19:57;99726.03;;;5.43;100.00
17311;BME280;8773;43.300;0.394;2022-11-20T04:22:25;99736.22;;;5.39;100.00
17311;BME280;8773;43.300;0.394;2022-11-20T04:24:55;99733.63;;;5.11;100.00
17311;BME280;8773;43.300;0.394;2022-11-20T04:27:23;99727.41;;;5.23;100.00
17311;BME280;8773;43.300;0.394;2022-11-20T04:29:51;99718.38;;;5.16;100.00
17311;BME280;8773;43.300;0.394;2022-11-20T04:32:22;99714.66;;;5.26;100.00
17311;BME280;8773;43.300;0.394;2022-11-20T04:34:50;99720.63;;;5.25;100.00
17311;BME280;8773;43.300;0.394;2022-11-20T04:37:18;99723.00;;;5.35;100.00
17311;BME280;8773;43.300;0.394;2022-11-20T04:39:46;99712.56;;;5.48;100.00
17311;BME280;8773;43.300;0.394;2022-11-20T04:42:16;99707.59;;;5.51;100.00
17311;BME280;8773;43.300;0.394;2022-11-20T04:45:04;99711.88;;;5.66;100.00
17311;BME280;8773;43.300;0.394;2022-11-20T04:47:33;99714.44;;;5.79;100.00
17311;BME280;8773;43.300;0.394;2022-11-20T04:50:00;99714.19;;;5.89;100.00
17311;BME280;8773;43.300;0.394;2022-11-20T04:52:28;99709.09;;;6.06;100.00
17311;BME280;8773;43.300;0.394;2022-11-20T04:54:57;99705.78;;;6.08;100.00
17311;BME280;8773;43.300;0.394;2022-11-20T04:57:26;99701.25;;;6.19;100.00
17311;BME280;8773;43.300;0.394;2022-11-20T04:59:54;99709.47;;;6.27;100.00
17311;BME280;8773;43.300;0.394;2022-11-20T05:02:22;99703.03;;;6.20;100.00
17311;BME280;8773;43.300;0.394;2022-11-20T05:04:50;99707.16;;;6.16;100.00
17311;BME280;8773;43.300;0.394;2022-11-20T05:07:18;99709.81;;;6.18;100.00
17311;BME280;8773;43.300;0.394;2022-11-20T05:09:46;99714.66;;;6.12;100.00
17311;BME280;8773;43.300;0.394;2022-11-20T05:12:14;99708.47;;;6.10;100.00
17311;BME280;8773;43.300;0.394;2022-11-20T05:14:43;99705.91;;;5.95;100.00
17311;BME280;8773;43.300;0.394;2022-11-20T05:17:12;99701.69;;;5.97;100.00
17311;BME280;8773;43.300;0.394;2022-11-20T05:19:39;99701.31;;;5.91;100.00
17311;BME280;8773;43.300;0.394;2022-11-20T05:22:08;99700.09;;;5.99;100.00
17311;BME280;8773;43.300;0.394;2022-11-20T05:24:36;99694.38;;;5.90;100.00
17311;BME280;8773;43.300;0.394;2022-11-20T05:27:04;99700.72;;;5.95;100.00
17311;BME280;8773;43.300;0.394;2022-11-20T05:29:32;99697.50;;;5.99;100.00
17311;BME280;8773;43.300;0.394;2022-11-20T05:32:01;99711.06;;;5.95;100.00
17311;BME280;8773;43.300;0.394;2022-11-20T05:34:29;99709.91;;;5.90;100.00
17311;BME280;8773;43.300;0.394;2022-11-20T05:37:00;99717.94;;;5.79;100.00
17311;BME280;8773;43.300;0.394;2022-11-20T05:39:28;99712.75;;;5.79;100.00
17311;BME280;8773;43.300;0.394;2022-11-20T05:41:57;99719.72;;;5.80;100.00
17311;BME280;8773;43.300;0.394;2022-11-20T05:44:39;99718.84;;;5.95;100.00
17311;BME280;8773;43.300;0.394;2022-11-20T05:47:08;99718.22;;;5.99;100.00
17311;BME280;8773;43.300;0.394;2022-11-20T05:49:36;99716.84;;;5.91;100.00
17311;BME280;8773;43.300;0.394;2022-11-20T05:52:04;99715.34;;;5.79;100.00
17311;BME280;8773;43.300;0.394;2022-11-20T05:54:32;99700.13;;;5.71;100.00
17311;BME280;8773;43.300;0.394;2022-11-20T05:57:00;99711.28;;;5.70;100.00
17311;BME280;8773;43.300;0.394;2022-11-20T05:59:28;99718.34;;;5.72;100.00
17311;BME280;8773;43.300;0.394;2022-11-20T06:01:57;99721.81;;;5.73;100.00
17311;BME280;8773;43.300;0.394;2022-11-20T06:04:26;99722.69;;;5.87;100.00
17311;BME280;8773;43.300;0.394;2022-11-20T06:06:54;99721.44;;;5.95;100.00
17311;BME280;8773;43.300;0.394;2022-11-20T06:09:22;99718.13;;;5.97;100.00
17311;BME280;8773;43.300;0.394;2022-11-20T06:11:50;99713.22;;;6.02;100.00
17311;BME280;8773;43.300;0.394;2022-11-20T06:14:18;99708.81;;;6.01;100.00
17311;BME280;8773;43.300;0.394;2022-11-20T06:16:46;99709.53;;;5.98;100.00
17311;BME280;8773;43.300;0.394;2022-11-20T06:19:14;99708.03;;;5.87;100.00
17311;BME280;8773;43.300;0.394;2022-11-20T06:21:44;99705.88;;;5.80;100.00
17311;BME280;8773;43.300;0.394;2022-11-20T06:24:12;99699.06;;;5.67;100.00
17311;BME280;8773;43.300;0.394;2022-11-20T06:26:40;99697.25;;;5.51;100.00
17311;BME280;8773;43.300;0.394;2022-11-20T06:29:09;99698.53;;;5.30;100.00
17311;BME280;8773;43.300;0.394;2022-11-20T06:31:37;99694.91;;;5.13;100.00
17311;BME280;8773;43.300;0.394;2022-11-20T06:34:06;99688.69;;;5.09;100.00
17311;BME280;8773;43.300;0.394;2022-11-20T06:36:34;99689.66;;;5.11;100.00
17311;BME280;8773;43.300;0.394;2022-11-20T06:39:03;99691.56;;;5.14;100.00
17311;BME280;8773;43.300;0.394;2022-11-20T06:41:31;99690.91;;;5.18;100.00
17311;BME280;8773;43.300;0.394;2022-11-20T06:44:00;99687.72;;;5.22;100.00
17311;BME280;8773;43.300;0.394;2022-11-20T06:46:28;99693.19;;;5.27;100.00
17311;BME280;8773;43.300;0.394;2022-11-20T06:48:55;99689.44;;;5.22;100.00
17311;BME280;8773;43.300;0.394;2022-11-20T06:51:24;99695.66;;;5.25;100.00
17311;BME280;8773;43.300;0.394;2022-11-20T06:53:53;99699.44;;;5.30;100.00
17311;BME280;8773;43.300;0.394;2022-11-20T06:56:22;99700.78;;;5.38;100.00
17311;BME280;8773;43.300;0.394;2022-11-20T06:58:50;99693.13;;;5.40;100.00
17311;BME280;8773;43.300;0.394;2022-11-20T07:01:18;99691.94;;;5.35;100.00
17311;BME280;8773;43.300;0.394;2022-11-20T07:03:48;99686.56;;;4.89;100.00
17311;BME280;8773;43.300;0.394;2022-11-20T07:06:20;99678.28;;;4.81;100.00
17311;BME280;8773;43.300;0.394;2022-11-20T07:08:50;99682.34;;;4.91;100.00
17311;BME280;8773;43.300;0.394;2022-11-20T07:11:18;99678.75;;;5.02;100.00
17311;BME280;8773;43.300;0.394;2022-11-20T07:13:47;99680.50;;;5.16;100.00
17311;BME280;8773;43.300;0.394;2022-11-20T07:16:16;99681.69;;;5.08;100.00
17311;BME280;8773;43.300;0.394;2022-11-20T07:18:44;99694.72;;;5.10;100.00
17311;BME280;8773;43.300;0.394;2022-11-20T07:21:16;99699.72;;;5.07;100.00
17311;BME280;8773;43.300;0.394;2022-11-20T07:23:44;99704.59;;;5.02;100.00
17311;BME280;8773;43.300;0.394;2022-11-20T07:26:13;99704.00;;;5.06;100.00
17311;BME280;8773;43.300;0.394;2022-11-20T07:28:43;99706.31;;;5.02;100.00
17311;BME280;8773;43.300;0.394;2022-11-20T07:31:13;99702.78;;;4.73;100.00
17311;BME280;8773;43.300;0.394;2022-11-20T07:33:44;99698.63;;;4.48;100.00
17311;BME280;8773;43.300;0.394;2022-11-20T07:36:13;99701.81;;;4.58;100.00
17311;BME280;8773;43.300;0.394;2022-11-20T07:38:41;99707.75;;;4.70;100.00
17311;BME280;8773;43.300;0.394;2022-11-20T07:41:09;99691.66;;;4.74;100.00
17311;BME280;8773;43.300;0.394;2022-11-20T07:43:37;99694.59;;;4.80;100.00
17311;BME280;8773;43.300;0.394;2022-11-20T07:46:07;99688.59;;;4.66;100.00
17311;BME280;8773;43.300;0.394;2022-11-20T07:48:36;99680.00;;;4.81;100.00
17311;BME280;8773;43.300;0.394;2022-11-20T07:51:04;99692.19;;;4.96;100.00
17311;BME280;8773;43.300;0.394;2022-11-20T07:53:33;99688.25;;;5.16;100.00
17311;BME280;8773;43.300;0.394;2022-11-20T07:56:02;99705.78;;;5.35;100.00
17311;BME280;8773;43.300;0.394;2022-11-20T07:58:31;99707.31;;;5.47;100.00
17311;BME280;8773;43.300;0.394;2022-11-20T08:01:04;99720.28;;;5.61;100.00
17311;BME280;8773;43.300;0.394;2022-11-20T08:03:33;99714.44;;;5.79;100.00
17311;BME280;8773;43.300;0.394;2022-11-20T08:06:03;99717.84;;;5.93;100.00
17311;BME280;8773;43.300;0.394;2022-11-20T08:08:32;99720.00;;;6.00;100.00
17311;BME280;8773;43.300;0.394;2022-11-20T08:11:05;99722.69;;;5.73;100.00
17311;BME280;8773;43.300;0.394;2022-11-20T08:13:51;99724.63;;;5.91;100.00
17311;BME280;8773;43.300;0.394;2022-11-20T08:16:47;99735.38;;;6.12;100.00
17311;BME280;8773;43.300;0.394;2022-11-20T08:19:17;99744.13;;;5.71;100.00
17311;BME280;8773;43.300;0.394;2022-11-20T08:21:47;99752.78;;;6.14;100.00
17311;BME280;8773;43.300;0.394;2022-11-20T08:24:16;99758.41;;;6.37;100.00
17311;BME280;8773;43.300;0.394;2022-11-20T08:26:44;99761.47;;;6.61;100.00
17311;BME280;8773;43.300;0.394;2022-11-20T08:29:14;99757.63;;;6.84;100.00
17311;BME280;8773;43.300;0.394;2022-11-20T08:31:42;99771.44;;;7.16;100.00
17311;BME280;8773;43.300;0.394;2022-11-20T08:34:10;99783.19;;;7.57;100.00
17311;BME280;8773;43.300;0.394;2022-11-20T08:36:44;99792.94;;;7.93;100.00
17311;BME280;8773;43.300;0.394;2022-11-20T08:39:15;99793.78;;;8.27;100.00
17311;BME280;8773;43.300;0.394;2022-11-20T08:41:44;99811.34;;;8.49;100.00
17311;BME280;8773;43.300;0.394;2022-11-20T08:44:12;99831.16;;;8.81;100.00
17311;BME280;8773;43.300;0.394;2022-11-20T08:46:41;99831.16;;;8.99;100.00
17311;BME280;8773;43.300;0.394;2022-11-20T08:49:12;99845.56;;;8.92;100.00
17311;BME280;8773;43.300;0.394;2022-11-20T08:51:41;99854.78;;;9.21;100.00
17311;BME280;8773;43.300;0.394;2022-11-20T08:54:09;99844.53;;;9.42;100.00
17311;BME280;8773;43.300;0.394;2022-11-20T08:56:39;99846.81;;;9.54;100.00
17311;BME280;8773;43.300;0.394;2022-11-20T08:59:07;99833.78;;;9.54;100.00
17311;BME280;8773;43.300;0.394;2022-11-20T09:02:05;99812.25;;;9.39;100.00
17311;BME280;8773;43.300;0.394;2022-11-20T09:04:33;99801.28;;;9.26;100.00
17311;BME280;8773;43.300;0.394;2022-11-20T09:07:01;99799.03;;;9.16;100.00
17311;BME280;8773;43.300;0.394;2022-11-20T09:09:32;99795.72;;;9.20;100.00
17311;BME280;8773;43.300;0.394;2022-11-20T09:12:02;99812.09;;;9.18;100.00
17311;BME280;8773;43.300;0.394;2022-11-20T09:14:30;99836.59;;;9.03;100.00
17311;BME280;8773;43.300;0.394;2022-11-20T09:16:58;99843.53;;;8.69;100.00
17311;BME280;8773;43.300;0.394;2022-11-20T09:19:26;99841.47;;;8.45;100.00
17311;BME280;8773;43.300;0.394;2022-11-20T09:22:06;99861.16;;;8.92;100.00
17311;BME280;8773;43.300;0.394;2022-11-20T09:24:35;99867.28;;;9.11;100.00
17311;BME280;8773;43.300;0.394;2022-11-20T09:27:07;99875.09;;;9.11;100.00
17311;BME280;8773;43.300;0.394;2022-11-20T09:29:35;99872.16;;;9.22;100.00
17311;BME280;8773;43.300;0.394;2022-11-20T09:32:04;99877.31;;;9.21;100.00
17311;BME280;8773;43.300;0.394;2022-11-20T09:34:32;99870.34;;;9.38;100.00
17311;BME280;8773;43.300;0.394;2022-11-20T09:37:01;99853.06;;;9.40;100.00
17311;BME280;8773;43.300;0.394;2022-11-20T09:39:37;99851.75;;;9.30;100.00
17311;BME280;8773;43.300;0.394;2022-11-20T09:42:39;99847.81;;;9.38;100.00
17311;BME280;8773;43.300;0.394;2022-11-20T09:45:18;99855.06;;;9.63;100.00
17311;BME280;8773;43.300;0.394;2022-11-20T09:48:02;99861.28;;;9.67;100.00
17311;BME280;8773;43.300;0.394;2022-11-20T09:50:36;99856.53;;;9.96;100.00
17311;BME280;8773;43.300;0.394;2022-11-20T09:53:13;99852.69;;;10.07;100.00
17311;BME280;8773;43.300;0.394;2022-11-20T09:55:47;99848.44;;;10.09;100.00
17311;BME280;8773;43.300;0.394;2022-11-20T09:58:25;99842.16;;;10.05;100.00
17311;BME280;8773;43.300;0.394;2022-11-20T10:00:59;99849.66;;;10.17;100.00
17311;BME280;8773;43.300;0.394;2022-11-20T10:03:37;99846.72;;;10.09;100.00
17311;BME280;8773;43.300;0.394;2022-11-20T10:06:12;99853.56;;;10.07;100.00
17311;BME280;8773;43.300;0.394;2022-11-20T10:08:44;99838.59;;;10.23;100.00
17311;BME280;8773;43.300;0.394;2022-11-20T10:11:16;99834.88;;;10.37;100.00
17311;BME280;8773;43.300;0.394;2022-11-20T10:13:54;99824.41;;;10.56;100.00
17311;BME280;8773;43.300;0.394;2022-11-20T10:16:32;99825.16;;;10.54;100.00
17311;BME280;8773;43.300;0.394;2022-11-20T10:19:18;99821.28;;;10.65;100.00
17311;BME280;8773;43.300;0.394;2022-11-20T10:21:58;99811.56;;;10.61;100.00
17311;BME280;8773;43.300;0.394;2022-11-20T10:24:42;99826.00;;;10.95;100.00
17311;BME280;8773;43.300;0.394;2022-11-20T10:27:47;99833.06;;;11.18;100.00
17311;BME280;8773;43.300;0.394;2022-11-20T10:30:22;99835.78;;;11.44;100.00
17311;BME280;8773;43.300;0.394;2022-11-20T10:32:54;99839.50;;;11.06;100.00
17311;BME280;8773;43.300;0.394;2022-11-20T10:35:27;99837.16;;;11.34;100.00
17311;BME280;8773;43.300;0.394;2022-11-20T10:38:00;99829.72;;;11.45;100.00
17311;BME280;8773;43.300;0.394;2022-11-20T10:40:32;99832.50;;;11.72;100.00
17311;BME280;8773;43.300;0.394;2022-11-20T10:43:08;99839.22;;;11.88;100.00
17311;BME280;8773;43.300;0.394;2022-11-20T10:46:02;99836.63;;;12.12;100.00
17311;BME280;8773;43.300;0.394;2022-11-20T10:48:32;99840.94;;;12.36;100.00
17311;BME280;8773;43.300;0.394;2022-11-20T10:51:11;99836.44;;;12.57;100.00
17311;BME280;8773;43.300;0.394;2022-11-20T10:53:52;99834.47;;;12.76;100.00
17311;BME280;8773;43.300;0.394;2022-11-20T10:56:26;99827.94;;;12.90;100.00
17311;BME280;8773;43.300;0.394;2022-11-20T10:59:12;99826.91;;;13.10;100.00
17311;BME280;8773;43.300;0.394;2022-11-20T11:01:47;99828.44;;;13.31;100.00
17311;BME280;8773;43.300;0.394;2022-11-20T11:04:28;99824.91;;;13.30;100.00
17311;BME280;8773;43.300;0.394;2022-11-20T11:07:06;99834.19;;;13.48;100.00
17311;BME280;8773;43.300;0.394;2022-11-20T11:09:40;99836.00;;;13.50;100.00
17311;BME280;8773;43.300;0.394;2022-11-20T11:12:10;99832.81;;;13.32;100.00
17311;BME280;8773;43.300;0.394;2022-11-20T11:14:43;99830.72;;;13.49;100.00
17311;BME280;8773;43.300;0.394;2022-11-20T11:17:25;99824.97;;;13.61;100.00
17311;BME280;8773;43.300;0.394;2022-11-20T11:20:14;99834.97;;;13.74;100.00
17311;BME280;8773;43.300;0.394;2022-11-20T11:22:45;99834.22;;;13.78;100.00
17311;BME280;8773;43.300;0.394;2022-11-20T11:25:35;99831.56;;;14.08;100.00
17311;BME280;8773;43.300;0.394;2022-11-20T11:28:19;99836.41;;;14.23;100.00
17311;BME280;8773;43.300;0.394;2022-11-20T11:30:47;99833.78;;;14.23;100.00
17311;BME280;8773;43.300;0.394;2022-11-20T11:33:20;99828.75;;;14.32;100.00
17311;BME280;8773;43.300;0.394;2022-11-20T11:35:50;99819.25;;;14.06;100.00
17311;BME280;8773;43.300;0.394;2022-11-20T11:38:23;99807.91;;;14.07;100.00
17311;BME280;8773;43.300;0.394;2022-11-20T11:40:57;99822.47;;;14.26;100.00
17311;BME280;8773;43.300;0.394;2022-11-20T11:43:28;99818.50;;;14.41;100.00
17311;BME280;8773;43.300;0.394;2022-11-20T11:46:25;99829.50;;;14.60;100.00
17311;BME280;8773;43.300;0.394;2022-11-20T11:48:58;99824.34;;;14.64;100.00
17311;BME280;8773;43.300;0.394;2022-11-20T11:51:33;99815.97;;;14.79;100.00
17311;BME280;8773;43.300;0.394;2022-11-20T11:56:53;99823.41;;;14.61;100.00
17311;BME280;8773;43.300;0.394;2022-11-20T11:59:26;99833.59;;;14.83;100.00
17311;BME280;8773;43.300;0.394;2022-11-20T12:01:58;99819.19;;;15.02;100.00
17311;BME280;8773;43.300;0.394;2022-11-20T12:04:42;99811.38;;;15.05;100.00
17311;BME280;8773;43.300;0.394;2022-11-20T12:07:18;99813.19;;;15.08;100.00
17311;BME280;8773;43.300;0.394;2022-11-20T12:10:16;99825.63;;;15.15;100.00
17311;BME280;8773;43.300;0.394;2022-11-20T12:12:51;99815.81;;;15.08;100.00
17311;BME280;8773;43.300;0.394;2022-11-20T12:15:26;99812.53;;;15.18;100.00
17311;BME280;8773;43.300;0.394;2022-11-20T12:17:56;99813.94;;;15.02;100.00
17311;BME280;8773;43.300;0.394;2022-11-20T12:20:30;99816.69;;;15.08;100.00
17311;BME280;8773;43.300;0.394;2022-11-20T12:23:05;99819.50;;;15.16;100.00
17311;BME280;8773;43.300;0.394;2022-11-20T12:25:38;99824.94;;;14.88;100.00
17311;BME280;8773;43.300;0.394;2022-11-20T12:28:25;99836.53;;;14.61;100.00
17311;BME280;8773;43.300;0.394;2022-11-20T12:31:13;99827.56;;;14.53;100.00
17311;BME280;8773;43.300;0.394;2022-11-20T12:33:57;99822.16;;;14.47;100.00
17311;BME280;8773;43.300;0.394;2022-11-20T12:36:39;99823.28;;;14.23;100.00
17311;BME280;8773;43.300;0.394;2022-11-20T12:39:27;99821.63;;;13.96;100.00
17311;BME280;8773;43.300;0.394;2022-11-20T12:42:07;99824.50;;;14.06;100.00
17311;BME280;8773;43.300;0.394;2022-11-20T12:45:06;99836.06;;;14.44;100.00
17311;BME280;8773;43.300;0.394;2022-11-20T12:50:35;99835.53;;;14.56;100.00
17311;BME280;8773;43.300;0.394;2022-11-20T12:53:35;99819.84;;;14.59;100.00
17311;BME280;8773;43.300;0.394;2022-11-20T12:56:24;99830.47;;;14.63;100.00
17311;BME280;8773;43.300;0.394;2022-11-20T12:59:06;99827.16;;;14.71;100.00
17311;BME280;8773;43.300;0.394;2022-11-20T13:01:41;99832.28;;;14.66;100.00
17311;BME280;8773;43.300;0.394;2022-11-20T13:04:27;99830.38;;;14.60;100.00
17311;BME280;8773;43.300;0.394;2022-11-20T13:07:05;99831.19;;;14.58;100.00
17311;BME280;8773;43.300;0.394;2022-11-20T13:09:40;99833.00;;;14.60;100.00
17311;BME280;8773;43.300;0.394;2022-11-20T13:12:14;99835.44;;;14.53;100.00
17311;BME280;8773;43.300;0.394;2022-11-20T13:14:47;99844.75;;;14.41;100.00
17311;BME280;8773;43.300;0.394;2022-11-20T13:17:23;99847.16;;;14.34;100.00
17311;BME280;8773;43.300;0.394;2022-11-20T13:19:54;99844.41;;;14.29;100.00
17311;BME280;8773;43.300;0.394;2022-11-20T13:22:24;99850.81;;;14.09;100.00
17311;BME280;8773;43.300;0.394;2022-11-20T13:24:54;99863.59;;;14.27;100.00
17311;BME280;8773;43.300;0.394;2022-11-20T13:27:23;99860.22;;;14.02;100.00
17311;BME280;8773;43.300;0.394;2022-11-20T13:30:12;99866.56;;;14.09;100.00
17311;BME280;8773;43.300;0.394;2022-11-20T13:32:49;99873.88;;;14.19;100.00
17311;BME280;8773;43.300;0.394;2022-11-20T13:35:40;99876.63;;;14.24;100.00
17311;BME280;8773;43.300;0.394;2022-11-20T13:38:11;99880.94;;;14.21;100.00
17311;BME280;8773;43.300;0.394;2022-11-20T13:40:50;99875.03;;;14.29;100.00